Andesborg — PCLC — position and weather

sailwx.info

Track history (hours):
 
Tides and Currents Weather Stations Pressure Air Temp Water Temp Dewpoint Dewpoint Depression Visibility Wind Speed Wind Dir Waves Ship Positions

Andesborg

Last reported at 2015-Jan-24 22:33 UTC. Time now 2015-Jan-27 12:25 UTC.
Position N 50°22' W 000°48'.

Length 142 m; draft 9 m.

Type: Ship. MMSI: 246797000.

Date/timePositionNaut miles runAvg speedWind from/ knotsBaromVisibWave heightAir tempDewpointWater temp
2015-Jan-24 22:33N 50°22' W 000°48'1611.0
2015-Jan-24 21:04N 50°27' W 000°24'2113.4
2015-Jan-24 19:29N 50°32' E 000°08'1314.4
2015-Jan-24 18:34N 50°36' E 000°28'1413.8
2015-Jan-24 17:33N 50°43' E 000°47'1813.8
2015-Jan-24 16:16N 50°54' E 001°09'912.3
2015-Jan-24 15:33N 50°60' E 001°19'1111.3
2015-Jan-24 14:33N 51°07' E 001°33'1211.8
2015-Jan-24 13:33N 51°15' E 001°48'5 4.7
2015-Jan-24 12:33N 51°19' E 001°52'0 0.1
2015-Jan-24 11:33N 51°19' E 001°52'0 0.0
2015-Jan-24 10:32N 51°19' E 001°52'1 1.3
2015-Jan-24 09:34N 51°20' E 001°52'9 9.2
2015-Jan-24 08:34N 51°23' E 002°06'1211.0
2015-Jan-24 07:30N 51°22' E 002°24'1111.4
2015-Jan-24 06:33N 51°23' E 002°42'8 8.1
2015-Jan-24 05:33N 51°25' E 002°54'1212.0
2015-Jan-24 04:34N 51°25' E 003°13'1211.5
2015-Jan-24 03:33N 51°25' E 003°32'7 7.3
2015-Jan-24 02:34N 51°23' E 003°43'9 8.8
2015-Jan-24 01:33N 51°24' E 003°57'7 7.0
2015-Jan-24 00:34N 51°22' E 004°08'6 5.9
2015-Jan-23 23:33N 51°21' E 004°17'0 0.3
2015-Jan-23 22:33N 51°21' E 004°18'5 4.1
2015-Jan-23 21:19N 51°17' E 004°23'0 0.0
2015-Jan-23 20:25N 51°17' E 004°23'0 0.0
2015-Jan-23 19:28N 51°17' E 004°23'0 0.0
2015-Jan-23 18:31N 51°17' E 004°23'0 0.0
2015-Jan-23 17:31N 51°17' E 004°23'0 0.0
2015-Jan-23 16:31N 51°17' E 004°23'0 0.0
2015-Jan-23 15:31N 51°17' E 004°23'0 0.0
2015-Jan-23 14:31N 51°17' E 004°23'0 0.0
2015-Jan-23 13:28N 51°17' E 004°23'0 0.0
2015-Jan-23 12:31N 51°17' E 004°23'0 0.0
2015-Jan-23 11:31N 51°17' E 004°23'0 0.0
2015-Jan-23 10:31N 51°17' E 004°23'0 0.0
2015-Jan-23 09:31N 51°17' E 004°23'0 0.0
2015-Jan-23 08:25N 51°17' E 004°23'0 0.0
2015-Jan-23 07:28N 51°17' E 004°23'0 0.0
2015-Jan-23 06:31N 51°17' E 004°23'0 0.0
2015-Jan-23 05:31N 51°17' E 004°23'0 0.0
2015-Jan-23 04:31N 51°17' E 004°23'0 0.0
2015-Jan-23 03:25N 51°17' E 004°23'0 0.0
2015-Jan-23 02:33N 51°17' E 004°23'0 0.0
2015-Jan-23 01:33N 51°17' E 004°23'0 0.0
2015-Jan-23 00:33N 51°17' E 004°23'0 0.0
2015-Jan-22 23:33N 51°17' E 004°23'0 0.0
2015-Jan-22 22:30N 51°17' E 004°23'0 0.0
2015-Jan-22 21:33N 51°17' E 004°23'0 0.0
2015-Jan-22 20:33N 51°17' E 004°23'0 0.0
2015-Jan-22 19:33N 51°17' E 004°23'0 0.0
2015-Jan-22 18:30N 51°17' E 004°23'0 0.0
2015-Jan-22 17:33N 51°17' E 004°23'0 0.0
2015-Jan-22 16:24N 51°17' E 004°23'0 0.0
2015-Jan-22 15:27N 51°17' E 004°23'0 0.0
2015-Jan-22 14:33N 51°17' E 004°23'0 0.0
2015-Jan-22 13:33N 51°17' E 004°23'0 0.0
2015-Jan-22 12:33N 51°17' E 004°23'0 0.0
2015-Jan-22 11:33N 51°17' E 004°23'0 0.0
2015-Jan-22 10:33N 51°17' E 004°23'0 0.0
2015-Jan-22 09:33N 51°17' E 004°23'0 0.0
2015-Jan-22 08:33N 51°17' E 004°23'0 0.0
2015-Jan-22 07:33N 51°17' E 004°23'0 0.0
2015-Jan-22 06:33N 51°17' E 004°23'0 0.0
2015-Jan-22 05:33N 51°17' E 004°23'0 0.0
2015-Jan-22 04:33N 51°17' E 004°23'0 0.0
2015-Jan-22 03:30N 51°17' E 004°23'0 0.0
2015-Jan-22 02:27N 51°17' E 004°23'0 0.0
2015-Jan-22 01:33N 51°17' E 004°23'0 0.0
2015-Jan-22 00:33N 51°17' E 004°23'0 0.0
2015-Jan-21 23:33N 51°17' E 004°23'0 0.0
2015-Jan-21 22:48N 51°17' E 004°23'0 0.0
2015-Jan-21 22:42N 51°17' E 004°23'0 0.0
2015-Jan-21 22:30N 51°17' E 004°23'0 0.0
2015-Jan-21 21:33N 51°17' E 004°23'0 0.0
2015-Jan-21 20:28N 51°17' E 004°23'0 0.0
2015-Jan-21 19:31N 51°17' E 004°23'0 0.0
2015-Jan-21 18:31N 51°17' E 004°23'0 0.0
2015-Jan-21 17:31N 51°17' E 004°23'0 0.0
2015-Jan-21 16:31N 51°17' E 004°23'0 0.0
2015-Jan-21 15:31N 51°17' E 004°23'0 0.0
2015-Jan-21 14:31N 51°17' E 004°23'0 0.0
2015-Jan-21 13:31N 51°17' E 004°23'0 0.0
2015-Jan-21 12:31N 51°17' E 004°23'0 0.0
2015-Jan-21 11:28N 51°17' E 004°23'0 0.0
2015-Jan-21 10:31N 51°17' E 004°23'0 0.0
2015-Jan-21 09:31N 51°17' E 004°23'0 0.0
2015-Jan-21 08:28N 51°17' E 004°23'0 0.0
2015-Jan-21 07:31N 51°17' E 004°23'0 0.0
2015-Jan-21 06:31N 51°17' E 004°23'0 0.0
2015-Jan-21 05:31N 51°17' E 004°23'0 0.0
2015-Jan-21 04:31N 51°17' E 004°23'0 0.0
2015-Jan-21 03:28N 51°17' E 004°23'0 0.0
2015-Jan-21 02:31N 51°17' E 004°23'0 0.0
2015-Jan-21 01:28N 51°17' E 004°23'0 0.0
2015-Jan-21 00:31N 51°17' E 004°23'0 0.0
2015-Jan-20 23:32N 51°17' E 004°23'0 0.0
2015-Jan-20 22:33N 51°17' E 004°23'0 0.0
2015-Jan-20 21:33N 51°17' E 004°23'0 0.0
2015-Jan-20 20:33N 51°17' E 004°23'0 0.0
2015-Jan-20 19:33N 51°17' E 004°23'0 0.0
2015-Jan-20 18:33N 51°17' E 004°23'0 0.0
2015-Jan-20 17:30N 51°17' E 004°23'0 0.0
2015-Jan-20 16:33N 51°17' E 004°23'0 0.0
2015-Jan-20 15:32N 51°17' E 004°23'0 0.0
2015-Jan-20 14:32N 51°17' E 004°23'0 0.0
2015-Jan-20 13:32N 51°17' E 004°23'0 0.0
2015-Jan-20 12:26N 51°17' E 004°23'0 0.0
2015-Jan-20 11:32N 51°17' E 004°23'0 0.0
2015-Jan-20 10:28N 51°17' E 004°23'0 0.0
2015-Jan-20 09:31N 51°17' E 004°23'0 0.0
2015-Jan-20 08:31N 51°17' E 004°23'0 0.0
2015-Jan-20 07:33N 51°17' E 004°23'0 0.0
2015-Jan-20 06:32N 51°17' E 004°23'0 0.0
2015-Jan-20 05:31N 51°17' E 004°23'0 0.0
2015-Jan-20 04:16N 51°17' E 004°23'0 0.0
2015-Jan-20 03:28N 51°17' E 004°23'0 0.0
2015-Jan-20 02:32N 51°17' E 004°23'0 0.0
2015-Jan-20 01:19N 51°17' E 004°23'0 0.0
2015-Jan-20 00:28N 51°17' E 004°23'0 0.0
2015-Jan-19 23:10N 51°17' E 004°23'1 1.0
2015-Jan-19 22:33N 51°17' E 004°22'1 1.3
2015-Jan-19 21:34N 51°17' E 004°20'8 8.2
2015-Jan-19 20:33N 51°24' E 004°13'9 9.2
2015-Jan-19 19:33N 51°25' E 003°58'10 9.5
2015-Jan-19 18:33N 51°23' E 003°43'8 7.7
2015-Jan-19 17:34N 51°27' E 003°33'1211.5
2015-Jan-19 16:33N 51°36' E 003°22'1111.4
2015-Jan-19 15:33N 51°46' E 003°11'20312.7
2015-Jan-18 23:31N 54°45' E 000°32'  
2015-Jan-16 19:05N 54°37' E 000°41'712.3
2015-Jan-16 18:33N 54°31' E 000°47'13111.4
2015-Jan-16 07:06N 52°35' E 002°25'712.1
2015-Jan-16 06:33N 52°28' E 002°26'47 9.1
2015-Jan-16 01:22N 51°48' E 003°08'9 8.4
2015-Jan-16 00:17N 51°43' E 003°19'811.2
2015-Jan-15 23:33N 51°35' E 003°24'1212.2
2015-Jan-15 22:33N 51°26' E 003°38'4 3.6
2015-Jan-15 21:33N 51°27' E 003°43'0 0.0
2015-Jan-15 20:30N 51°27' E 003°43'0 0.0
2015-Jan-15 19:33N 51°27' E 003°43'0 0.0
2015-Jan-15 18:30N 51°27' E 003°43'0 0.0
2015-Jan-15 17:33N 51°27' E 003°43'0 0.0
2015-Jan-15 16:30N 51°27' E 003°43'0 0.0
2015-Jan-15 15:33N 51°27' E 003°43'0 0.0
2015-Jan-15 14:30N 51°27' E 003°43'0 0.0
2015-Jan-15 13:30N 51°27' E 003°43'0 0.0
2015-Jan-15 12:30N 51°27' E 003°43'0 0.0
2015-Jan-15 11:33N 51°27' E 003°43'0 0.0
2015-Jan-15 10:27N 51°27' E 003°43'0 0.0
2015-Jan-15 09:33N 51°27' E 003°43'0 0.0
2015-Jan-15 08:33N 51°27' E 003°43'0 0.0
2015-Jan-15 07:33N 51°27' E 003°43'0 0.0
2015-Jan-15 06:30N 51°27' E 003°43'0 0.0
2015-Jan-15 05:33N 51°27' E 003°43'0 0.0
2015-Jan-15 04:30N 51°27' E 003°43'0 0.0
2015-Jan-15 03:30N 51°27' E 003°43'0 0.0
2015-Jan-15 02:33N 51°27' E 003°43'0 0.0
2015-Jan-15 01:33N 51°27' E 003°43'0 0.0
2015-Jan-15 00:33N 51°27' E 003°43'0 0.0
2015-Jan-14 23:30N 51°27' E 003°43'0 0.0
2015-Jan-14 22:33N 51°27' E 003°43'  
Track history (hours):
 
Tides and Currents Weather Stations Pressure Air Temp Water Temp Dewpoint Dewpoint Depression Visibility Wind Speed Wind Dir Waves Ship Positions

Andesborg

Last reported at 2015-Jan-24 22:33 UTC. Time now 2015-Jan-27 12:25 UTC.
Position N 50°22' W 000°48'.

Length 142 m; draft 9 m.

Type: Ship. MMSI: 246797000.

Date/timePositionNaut miles runAvg speedWind from/ knotsBaromVisibWave heightAir tempDewpointWater temp
2015-Jan-24 22:33N 50°22' W 000°48'1611.0
2015-Jan-24 21:04N 50°27' W 000°24'2113.4
2015-Jan-24 19:29N 50°32' E 000°08'1314.4
2015-Jan-24 18:34N 50°36' E 000°28'1413.8
2015-Jan-24 17:33N 50°43' E 000°47'1813.8
2015-Jan-24 16:16N 50°54' E 001°09'912.3
2015-Jan-24 15:33N 50°60' E 001°19'1111.3
2015-Jan-24 14:33N 51°07' E 001°33'1211.8
2015-Jan-24 13:33N 51°15' E 001°48'5 4.7
2015-Jan-24 12:33N 51°19' E 001°52'0 0.1
2015-Jan-24 11:33N 51°19' E 001°52'0 0.0
2015-Jan-24 10:32N 51°19' E 001°52'1 1.3
2015-Jan-24 09:34N 51°20' E 001°52'9 9.2
2015-Jan-24 08:34N 51°23' E 002°06'1211.0
2015-Jan-24 07:30N 51°22' E 002°24'1111.4
2015-Jan-24 06:33N 51°23' E 002°42'8 8.1
2015-Jan-24 05:33N 51°25' E 002°54'1212.0
2015-Jan-24 04:34N 51°25' E 003°13'1211.5
2015-Jan-24 03:33N 51°25' E 003°32'7 7.3
2015-Jan-24 02:34N 51°23' E 003°43'9 8.8
2015-Jan-24 01:33N 51°24' E 003°57'7 7.0
2015-Jan-24 00:34N 51°22' E 004°08'6 5.9
2015-Jan-23 23:33N 51°21' E 004°17'0 0.3
2015-Jan-23 22:33N 51°21' E 004°18'5 4.1
2015-Jan-23 21:19N 51°17' E 004°23'0 0.0
2015-Jan-23 20:25N 51°17' E 004°23'0 0.0
2015-Jan-23 19:28N 51°17' E 004°23'0 0.0
2015-Jan-23 18:31N 51°17' E 004°23'0 0.0
2015-Jan-23 17:31N 51°17' E 004°23'0 0.0
2015-Jan-23 16:31N 51°17' E 004°23'0 0.0
2015-Jan-23 15:31N 51°17' E 004°23'0 0.0
2015-Jan-23 14:31N 51°17' E 004°23'0 0.0
2015-Jan-23 13:28N 51°17' E 004°23'0 0.0
2015-Jan-23 12:31N 51°17' E 004°23'0 0.0
2015-Jan-23 11:31N 51°17' E 004°23'0 0.0
2015-Jan-23 10:31N 51°17' E 004°23'0 0.0
2015-Jan-23 09:31N 51°17' E 004°23'0 0.0
2015-Jan-23 08:25N 51°17' E 004°23'0 0.0
2015-Jan-23 07:28N 51°17' E 004°23'0 0.0
2015-Jan-23 06:31N 51°17' E 004°23'0 0.0
2015-Jan-23 05:31N 51°17' E 004°23'0 0.0
2015-Jan-23 04:31N 51°17' E 004°23'0 0.0
2015-Jan-23 03:25N 51°17' E 004°23'0 0.0
2015-Jan-23 02:33N 51°17' E 004°23'0 0.0
2015-Jan-23 01:33N 51°17' E 004°23'0 0.0
2015-Jan-23 00:33N 51°17' E 004°23'0 0.0
2015-Jan-22 23:33N 51°17' E 004°23'0 0.0
2015-Jan-22 22:30N 51°17' E 004°23'0 0.0
2015-Jan-22 21:33N 51°17' E 004°23'0 0.0
2015-Jan-22 20:33N 51°17' E 004°23'0 0.0
2015-Jan-22 19:33N 51°17' E 004°23'0 0.0
2015-Jan-22 18:30N 51°17' E 004°23'0 0.0
2015-Jan-22 17:33N 51°17' E 004°23'0 0.0
2015-Jan-22 16:24N 51°17' E 004°23'0 0.0
2015-Jan-22 15:27N 51°17' E 004°23'0 0.0
2015-Jan-22 14:33N 51°17' E 004°23'0 0.0
2015-Jan-22 13:33N 51°17' E 004°23'0 0.0
2015-Jan-22 12:33N 51°17' E 004°23'0 0.0
2015-Jan-22 11:33N 51°17' E 004°23'0 0.0
2015-Jan-22 10:33N 51°17' E 004°23'0 0.0
2015-Jan-22 09:33N 51°17' E 004°23'0 0.0
2015-Jan-22 08:33N 51°17' E 004°23'0 0.0
2015-Jan-22 07:33N 51°17' E 004°23'0 0.0
2015-Jan-22 06:33N 51°17' E 004°23'0 0.0
2015-Jan-22 05:33N 51°17' E 004°23'0 0.0
2015-Jan-22 04:33N 51°17' E 004°23'0 0.0
2015-Jan-22 03:30N 51°17' E 004°23'0 0.0
2015-Jan-22 02:27N 51°17' E 004°23'0 0.0
2015-Jan-22 01:33N 51°17' E 004°23'0 0.0
2015-Jan-22 00:33N 51°17' E 004°23'0 0.0
2015-Jan-21 23:33N 51°17' E 004°23'0 0.0
2015-Jan-21 22:48N 51°17' E 004°23'0 0.0
2015-Jan-21 22:42N 51°17' E 004°23'0 0.0
2015-Jan-21 22:30N 51°17' E 004°23'0 0.0
2015-Jan-21 21:33N 51°17' E 004°23'0 0.0
2015-Jan-21 20:28N 51°17' E 004°23'0 0.0
2015-Jan-21 19:31N 51°17' E 004°23'0 0.0
2015-Jan-21 18:31N 51°17' E 004°23'0 0.0
2015-Jan-21 17:31N 51°17' E 004°23'0 0.0
2015-Jan-21 16:31N 51°17' E 004°23'0 0.0
2015-Jan-21 15:31N 51°17' E 004°23'0 0.0
2015-Jan-21 14:31N 51°17' E 004°23'0 0.0
2015-Jan-21 13:31N 51°17' E 004°23'0 0.0
2015-Jan-21 12:31N 51°17' E 004°23'0 0.0
2015-Jan-21 11:28N 51°17' E 004°23'0 0.0
2015-Jan-21 10:31N 51°17' E 004°23'0 0.0
2015-Jan-21 09:31N 51°17' E 004°23'0 0.0
2015-Jan-21 08:28N 51°17' E 004°23'0 0.0
2015-Jan-21 07:31N 51°17' E 004°23'0 0.0
2015-Jan-21 06:31N 51°17' E 004°23'0 0.0
2015-Jan-21 05:31N 51°17' E 004°23'0 0.0
2015-Jan-21 04:31N 51°17' E 004°23'0 0.0
2015-Jan-21 03:28N 51°17' E 004°23'0 0.0
2015-Jan-21 02:31N 51°17' E 004°23'0 0.0
2015-Jan-21 01:28N 51°17' E 004°23'0 0.0
2015-Jan-21 00:31N 51°17' E 004°23'0 0.0
2015-Jan-20 23:32N 51°17' E 004°23'0 0.0
2015-Jan-20 22:33N 51°17' E 004°23'0 0.0
2015-Jan-20 21:33N 51°17' E 004°23'0 0.0
2015-Jan-20 20:33N 51°17' E 004°23'0 0.0
2015-Jan-20 19:33N 51°17' E 004°23'0 0.0
2015-Jan-20 18:33N 51°17' E 004°23'0 0.0
2015-Jan-20 17:30N 51°17' E 004°23'0 0.0
2015-Jan-20 16:33N 51°17' E 004°23'0 0.0
2015-Jan-20 15:32N 51°17' E 004°23'0 0.0
2015-Jan-20 14:32N 51°17' E 004°23'0 0.0
2015-Jan-20 13:32N 51°17' E 004°23'0 0.0
2015-Jan-20 12:26N 51°17' E 004°23'0 0.0
2015-Jan-20 11:32N 51°17' E 004°23'0 0.0
2015-Jan-20 10:28N 51°17' E 004°23'0 0.0
2015-Jan-20 09:31N 51°17' E 004°23'0 0.0
2015-Jan-20 08:31N 51°17' E 004°23'0 0.0
2015-Jan-20 07:33N 51°17' E 004°23'0 0.0
2015-Jan-20 06:32N 51°17' E 004°23'0 0.0
2015-Jan-20 05:31N 51°17' E 004°23'0 0.0
2015-Jan-20 04:16N 51°17' E 004°23'0 0.0
2015-Jan-20 03:28N 51°17' E 004°23'0 0.0
2015-Jan-20 02:32N 51°17' E 004°23'0 0.0
2015-Jan-20 01:19N 51°17' E 004°23'0 0.0
2015-Jan-20 00:28N 51°17' E 004°23'0 0.0
2015-Jan-19 23:10N 51°17' E 004°23'1 1.0
2015-Jan-19 22:33N 51°17' E 004°22'1 1.3
2015-Jan-19 21:34N 51°17' E 004°20'8 8.2
2015-Jan-19 20:33N 51°24' E 004°13'9 9.2
2015-Jan-19 19:33N 51°25' E 003°58'10 9.5
2015-Jan-19 18:33N 51°23' E 003°43'8 7.7
2015-Jan-19 17:34N 51°27' E 003°33'1211.5
2015-Jan-19 16:33N 51°36' E 003°22'1111.4
2015-Jan-19 15:33N 51°46' E 003°11'20312.7
2015-Jan-18 23:31N 54°45' E 000°32'  
2015-Jan-16 19:05N 54°37' E 000°41'712.3
2015-Jan-16 18:33N 54°31' E 000°47'13111.4
2015-Jan-16 07:06N 52°35' E 002°25'712.1
2015-Jan-16 06:33N 52°28' E 002°26'47 9.1
2015-Jan-16 01:22N 51°48' E 003°08'9 8.4
2015-Jan-16 00:17N 51°43' E 003°19'811.2
2015-Jan-15 23:33N 51°35' E 003°24'1212.2
2015-Jan-15 22:33N 51°26' E 003°38'4 3.6
2015-Jan-15 21:33N 51°27' E 003°43'0 0.0
2015-Jan-15 20:30N 51°27' E 003°43'0 0.0
2015-Jan-15 19:33N 51°27' E 003°43'0 0.0
2015-Jan-15 18:30N 51°27' E 003°43'0 0.0
2015-Jan-15 17:33N 51°27' E 003°43'0 0.0
2015-Jan-15 16:30N 51°27' E 003°43'0 0.0
2015-Jan-15 15:33N 51°27' E 003°43'0 0.0
2015-Jan-15 14:30N 51°27' E 003°43'0 0.0
2015-Jan-15 13:30N 51°27' E 003°43'0 0.0
2015-Jan-15 12:30N 51°27' E 003°43'0 0.0
2015-Jan-15 11:33N 51°27' E 003°43'0 0.0
2015-Jan-15 10:27N 51°27' E 003°43'0 0.0
2015-Jan-15 09:33N 51°27' E 003°43'0 0.0
2015-Jan-15 08:33N 51°27' E 003°43'0 0.0
2015-Jan-15 07:33N 51°27' E 003°43'0 0.0
2015-Jan-15 06:30N 51°27' E 003°43'0 0.0
2015-Jan-15 05:33N 51°27' E 003°43'0 0.0
2015-Jan-15 04:30N 51°27' E 003°43'0 0.0
2015-Jan-15 03:30N 51°27' E 003°43'0 0.0
2015-Jan-15 02:33N 51°27' E 003°43'0 0.0
2015-Jan-15 01:33N 51°27' E 003°43'0 0.0
2015-Jan-15 00:33N 51°27' E 003°43'0 0.0
2015-Jan-14 23:30N 51°27' E 003°43'0 0.0
2015-Jan-14 22:33N 51°27' E 003°43'  

Dump ship's entire track history